Orbital elements of NADEZHDA 5
| Launched | 9 December 1998 |
| Flight ended | – |
| Launch site | Plesetsk Missile and Space Complex, Russia |
| Owner | Commonwealth of Independent States (former USSR) |
| NORAD ID | 25567 |
| Date fetched |
Epoch osculation |
Inc. [°] |
Ecc. | RA asc node [hr] |
Arg Peri. [°] |
Mean anom [°] |
Mean motion [rev/day] |
Abs. mag |
| Date fetched |
Epoch osculation |
Inc. [°] |
Ecc. | RA asc node [hr] |
Arg Peri. [°] |
Mean anom [°] |
Mean motion [rev/day] |
Abs. mag |
| 2026 May 04 17:57 | 2026 Apr 30 11:08:08 | 82.9443 | 0.00245 | 8.2057 | 238.2547 | 235.0686 | 13.72078 | 5.743 |
| 2026 May 03 17:57 | 2026 Apr 30 11:08:08 | 82.9443 | 0.00245 | 8.2057 | 238.2547 | 235.0686 | 13.72078 | 5.743 |
| 2026 May 02 17:57 | 2026 Apr 30 11:08:08 | 82.9443 | 0.00245 | 8.2057 | 238.2547 | 235.0686 | 13.72078 | 5.743 |
| 2026 May 01 17:56 | 2026 Apr 30 11:08:08 | 82.9443 | 0.00245 | 8.2057 | 238.2547 | 235.0686 | 13.72078 | 5.743 |
| 2026 Apr 30 17:56 | 2026 Apr 30 11:08:08 | 82.9443 | 0.00245 | 8.2057 | 238.2547 | 235.0686 | 13.72078 | 5.743 |
| 2026 Apr 29 17:57 | 2026 Apr 24 13:24:05 | 82.9445 | 0.00243 | 8.4958 | 255.4983 | 235.0686 | 13.72078 | 5.743 |
| 2026 Apr 28 17:56 | 2026 Apr 24 13:24:05 | 82.9445 | 0.00243 | 8.4958 | 255.4983 | 235.0686 | 13.72078 | 5.743 |
| 2026 Apr 27 17:58 | 2026 Apr 24 13:24:05 | 82.9445 | 0.00243 | 8.4958 | 255.4983 | 235.0686 | 13.72078 | 5.743 |
| 2026 Apr 26 17:58 | 2026 Apr 24 13:24:05 | 82.9445 | 0.00243 | 8.4958 | 255.4983 | 235.0686 | 13.72078 | 5.743 |
| 2026 Apr 25 17:58 | 2026 Apr 24 13:24:05 | 82.9445 | 0.00243 | 8.4958 | 255.4983 | 235.0686 | 13.72078 | 5.743 |
| 2026 Apr 24 17:59 | 2026 Apr 24 13:24:05 | 82.9445 | 0.00243 | 8.4958 | 255.4983 | 235.0686 | 13.72078 | 5.743 |
| 2026 Apr 23 17:57 | 2026 Apr 19 08:36:48 | 82.9450 | 0.00243 | 8.7511 | 270.7460 | 235.0686 | 13.72078 | 5.743 |
| 2026 Apr 22 17:57 | 2026 Apr 19 08:36:48 | 82.9450 | 0.00243 | 8.7511 | 270.7460 | 235.0686 | 13.72078 | 5.743 |
| 2026 Apr 21 17:57 | 2026 Apr 19 08:36:48 | 82.9450 | 0.00243 | 8.7511 | 270.7460 | 235.0686 | 13.72078 | 5.743 |
| 2026 Apr 20 17:57 | 2026 Apr 19 08:36:48 | 82.9450 | 0.00243 | 8.7511 | 270.7460 | 235.0686 | 13.72078 | 5.743 |
| 2026 Apr 19 17:58 | 2026 Apr 19 08:36:48 | 82.9450 | 0.00243 | 8.7511 | 270.7460 | 235.0686 | 13.72078 | 5.743 |
| 2026 Apr 18 17:56 | 2026 Apr 13 02:11:00 | 82.9457 | 0.00243 | 9.0590 | 289.1594 | 235.0686 | 13.72078 | 5.743 |
| 2026 Apr 16 17:57 | 2026 Apr 13 02:11:00 | 82.9457 | 0.00243 | 9.0590 | 289.1594 | 235.0686 | 13.72078 | 5.743 |
| 2026 Apr 14 17:57 | 2026 Apr 13 02:11:00 | 82.9457 | 0.00243 | 9.0590 | 289.1594 | 235.0686 | 13.72078 | 5.743 |
| 2026 Apr 13 17:57 | 2026 Apr 13 02:11:00 | 82.9457 | 0.00243 | 9.0590 | 289.1594 | 235.0686 | 13.72078 | 5.743 |
| 2026 Apr 12 17:57 | 2026 Apr 08 14:04:44 | 82.9466 | 0.00245 | 9.2802 | 302.2973 | 235.0686 | 13.72078 | 5.743 |
| 2026 Apr 11 17:57 | 2026 Apr 08 14:04:44 | 82.9466 | 0.00245 | 9.2802 | 302.2973 | 235.0686 | 13.72078 | 5.743 |
| 2026 Apr 10 17:58 | 2026 Apr 08 14:04:44 | 82.9466 | 0.00245 | 9.2802 | 302.2973 | 235.0686 | 13.72078 | 5.743 |
| 2026 Apr 09 18:01 | 2026 Apr 08 14:04:44 | 82.9466 | 0.00245 | 9.2802 | 302.2973 | 235.0686 | 13.72078 | 5.743 |
| 2026 Apr 08 17:57 | 2026 Apr 08 14:04:44 | 82.9466 | 0.00245 | 9.2802 | 302.2973 | 235.0686 | 13.72078 | 5.743 |
| 2026 Apr 07 17:57 | 2026 Apr 02 05:35:14 | 82.9477 | 0.00247 | 9.5922 | 320.7254 | 235.0686 | 13.72078 | 5.743 |